Aviation Digital Data Service (ADDS)

Output produced by METARs form (1720 UTC 27 July 2016)
found at http://aviationweather.gov/adds/metars/
 
METAR text: KSPB 271653Z AUTO 02007KT 10SM CLR 20/13 A3011 RMK AO2 SLP195 T02000133
Conditions at: KSPB (SCAPPOOSE , OR, US) observed 1653 UTC 27 July 2016
Temperature: 20.0°C (68°F)
Dewpoint: 13.3°C (56°F) [RH = 65%]
Pressure (altimeter): 30.11 inches Hg (1019.7 mb)
[Sea-level pressure: 1019.5 mb]
Winds: from the NNE (20 degrees) at 8 MPH (7 knots; 3.6 m/s)
Visibility: 10 or more miles (16+ km)
Ceiling: at least 12,000 feet AGL
Clouds: sky clear below 12,000 feet AGL
Weather: automated observation with no human augmentation;
there may or may not be significant weather present at this time

METAR text: KSPB 271553Z AUTO 02010KT 10SM CLR 17/13 A3011 RMK AO2 SLP196 T01720128
Conditions at: KSPB (SCAPPOOSE , OR, US) observed 1553 UTC 27 July 2016
Temperature: 17.2°C (63°F)
Dewpoint: 12.8°C (55°F) [RH = 75%]
Pressure (altimeter): 30.11 inches Hg (1019.7 mb)
[Sea-level pressure: 1019.6 mb]
Winds: from the NNE (20 degrees) at 12 MPH (10 knots; 5.2 m/s)
Visibility: 10 or more miles (16+ km)
Ceiling: at least 12,000 feet AGL
Clouds: sky clear below 12,000 feet AGL
Weather: automated observation with no human augmentation;
there may or may not be significant weather present at this time